Terminal Aerodrome Forecast
Issued by NWS Sterling, VA

Current Version | Previous Version | Graphics & Text | Print | Product List | Glossary On
Versions: 1 2 3 4 5 6 7 8 9 10 11 12 13 14 15 16 17 18 19 20 21 22 23 24 25 26 27 28 29 30
000
FTUS41 KLWX 291720
TAFDCA
TAF
KDCA 291720Z 2918/3018 23007KT P6SM FEW050
     FM292200 20009KT P6SM SCT200
     FM300000 16008KT P6SM SCT200
     FM300300 16004KT P6SM BKN130
     FM301200 18008KT P6SM BKN100
     FM301700 18012KT P6SM BKN100=

USA.gov is the U.S. government's official web portal to all federal, state and local government web resources and services.